createdAt,value
2023-04-02T00:00:28.339Z,11.70
2023-04-02T00:04:30.189Z,11.40
2023-04-02T00:07:30.848Z,12.60
2023-04-02T00:10:49.290Z,12.20
2023-04-02T00:13:45.681Z,10.90
2023-04-02T00:16:36.429Z,10.70
2023-04-02T00:19:33.089Z,11.30
2023-04-02T00:22:26.116Z,11.60
2023-04-02T00:28:52.440Z,10.00
2023-04-02T00:31:49.072Z,10.10
2023-04-02T00:38:50.818Z,9.00
2023-04-02T00:41:46.787Z,8.90
2023-04-02T00:45:02.160Z,8.70
2023-04-02T00:47:53.400Z,9.00
2023-04-02T00:50:44.203Z,8.70
2023-04-02T00:53:34.980Z,8.60
2023-04-02T00:56:28.698Z,9.80
2023-04-02T00:59:27.837Z,10.60
2023-04-02T01:02:28.079Z,6.20
2023-04-02T01:05:24.677Z,7.60
2023-04-02T01:08:18.202Z,8.10
2023-04-02T01:11:12.525Z,9.10
2023-04-02T01:14:07.314Z,9.40
2023-04-02T01:17:01.853Z,8.80
2023-04-02T01:20:16.389Z,9.70
2023-04-02T01:23:08.272Z,8.60
2023-04-02T01:26:01.173Z,7.70
2023-04-02T01:29:01.813Z,8.40
2023-04-02T01:31:52.878Z,8.20
2023-04-02T01:34:44.833Z,7.90
2023-04-02T01:37:38.755Z,6.10
2023-04-02T01:40:36.741Z,9.20
2023-04-02T01:43:29.782Z,7.70
2023-04-02T01:46:29.937Z,8.50
2023-04-02T01:49:22.734Z,6.40
2023-04-02T01:52:16.553Z,5.60
2023-04-02T01:55:09.561Z,7.60
2023-04-02T01:58:00.036Z,7.90
2023-04-02T02:00:53.223Z,6.60
2023-04-02T02:03:44.261Z,7.00
2023-04-02T02:06:35.381Z,6.60
2023-04-02T02:09:27.271Z,7.60
2023-04-02T02:12:18.012Z,8.10
2023-04-02T02:15:13.966Z,6.30
2023-04-02T02:18:05.941Z,6.20
2023-04-02T02:20:56.956Z,7.40
2023-04-02T02:23:47.804Z,8.90
2023-04-02T02:26:38.884Z,8.50
2023-04-02T02:29:29.674Z,8.40
2023-04-02T02:32:20.445Z,5.90
2023-04-02T02:35:15.205Z,7.80
2023-04-02T02:38:27.089Z,7.90
2023-04-02T02:41:22.737Z,7.90
2023-04-02T02:44:17.292Z,5.60
2023-04-02T02:47:10.705Z,8.50
2023-04-02T02:50:03.846Z,11.00
2023-04-02T02:52:56.048Z,6.50
2023-04-02T02:55:47.855Z,7.60
2023-04-02T02:58:42.824Z,6.60
2023-04-02T03:01:41.696Z,6.10
2023-04-02T03:04:35.862Z,5.00
2023-04-02T03:07:30.345Z,6.20
2023-04-02T03:10:22.619Z,5.70
2023-04-02T03:13:19.937Z,6.10
2023-04-02T03:16:12.872Z,5.70
2023-04-02T03:19:05.870Z,5.90
2023-04-02T03:22:03.157Z,5.40
2023-04-02T03:24:57.072Z,5.80
2023-04-02T03:27:48.782Z,6.10
2023-04-02T03:30:42.821Z,7.20
2023-04-02T03:33:35.234Z,5.10
2023-04-02T03:36:28.611Z,5.50
2023-04-02T03:39:21.710Z,4.90
2023-04-02T03:42:17.098Z,3.90
2023-04-02T03:45:08.935Z,4.70
2023-04-02T03:48:00.471Z,4.80
2023-04-02T03:50:54.287Z,4.10
2023-04-02T03:53:47.745Z,3.10
2023-04-02T03:56:41.454Z,4.40
2023-04-02T03:59:39.833Z,4.80
2023-04-02T04:02:39.492Z,4.90
2023-04-02T04:05:31.846Z,4.00
2023-04-02T04:08:25.214Z,3.70
2023-04-02T04:11:18.653Z,3.90
2023-04-02T04:14:11.297Z,4.20
2023-04-02T04:17:05.735Z,4.30
2023-04-02T04:19:59.378Z,4.00
2023-04-02T04:22:56.053Z,2.40
2023-04-02T04:25:49.543Z,3.60
2023-04-02T04:28:42.819Z,3.10
2023-04-02T04:31:39.019Z,4.10
2023-04-02T04:34:36.381Z,3.90
2023-04-02T04:37:33.644Z,4.40
2023-04-02T04:43:19.803Z,4.70
2023-04-02T04:46:11.986Z,4.80
2023-04-02T04:49:03.746Z,5.70
2023-04-02T04:51:56.271Z,4.60
2023-04-02T04:54:48.599Z,5.20
2023-04-02T04:57:41.862Z,5.40
2023-04-02T05:00:41.948Z,5.90
2023-04-02T05:03:34.260Z,4.90
2023-04-02T05:06:35.128Z,2.80
2023-04-02T05:09:33.623Z,2.50
2023-04-02T05:12:31.055Z,2.30
2023-04-02T05:15:23.893Z,2.00
2023-04-02T05:18:22.121Z,3.60
2023-04-02T05:21:17.510Z,2.40
2023-04-02T05:24:27.396Z,1.90
2023-04-02T05:27:26.418Z,2.30
2023-04-02T05:30:54.958Z,2.60
2023-04-02T05:33:49.906Z,3.10
2023-04-02T05:36:40.529Z,2.80
2023-04-02T05:39:33.206Z,3.10
2023-04-02T05:42:25.928Z,4.50
2023-04-02T05:45:26.447Z,4.70
2023-04-02T05:48:22.414Z,5.10
2023-04-02T05:51:36.535Z,4.40
2023-04-02T05:54:29.529Z,6.00
2023-04-02T05:57:42.853Z,6.40
2023-04-02T06:00:55.642Z,7.60
2023-04-02T06:03:49.872Z,7.40
2023-04-02T06:06:53.581Z,7.70
2023-04-02T06:09:45.064Z,6.90
2023-04-02T06:12:39.260Z,7.90
2023-04-02T06:15:31.083Z,8.70
2023-04-02T06:18:29.779Z,7.10
2023-04-02T06:21:21.051Z,6.70
2023-04-02T06:24:14.662Z,8.30
2023-04-02T06:27:07.077Z,6.60
2023-04-02T06:30:00.921Z,6.20
2023-04-02T06:32:53.803Z,4.30
2023-04-02T06:35:49.069Z,6.00
2023-04-02T06:38:53.450Z,4.70
2023-04-02T06:41:55.817Z,3.80
2023-04-02T06:44:56.516Z,4.20
2023-04-02T06:48:13.164Z,4.30
2023-04-02T06:51:07.290Z,3.80
2023-04-02T06:53:57.842Z,3.90
2023-04-02T06:56:49.283Z,3.90
2023-04-02T06:59:45.441Z,3.80
2023-04-02T07:02:40.800Z,4.50
2023-04-02T07:05:34.420Z,4.20
2023-04-02T07:08:25.349Z,5.70
2023-04-02T07:11:20.182Z,4.00
2023-04-02T07:14:14.081Z,5.40
2023-04-02T07:17:05.393Z,5.60
2023-04-02T07:19:55.910Z,3.30
2023-04-02T07:22:47.272Z,4.40
2023-04-02T07:25:37.897Z,4.20
2023-04-02T07:28:29.090Z,3.20
2023-04-02T07:31:21.491Z,4.50
2023-04-02T07:34:12.384Z,4.10
2023-04-02T07:37:03.874Z,4.50
2023-04-02T07:39:54.609Z,3.70
2023-04-02T07:42:45.365Z,4.60
2023-04-02T07:45:35.972Z,5.10
2023-04-02T07:48:26.764Z,4.70
2023-04-02T07:51:21.797Z,5.00
2023-04-02T07:54:13.102Z,5.20
2023-04-02T07:57:03.931Z,4.60
2023-04-02T07:59:56.571Z,6.00
2023-04-02T08:02:47.550Z,5.60
2023-04-02T08:05:38.396Z,5.10
2023-04-02T08:08:29.019Z,4.60
2023-04-02T08:11:19.589Z,5.20
2023-04-02T08:14:10.034Z,4.90
2023-04-02T08:17:00.641Z,3.90
2023-04-02T08:19:55.156Z,4.80
2023-04-02T08:22:46.355Z,4.50
2023-04-02T08:25:36.970Z,2.70
2023-04-02T08:28:27.749Z,3.10
2023-04-02T08:31:23.634Z,5.20
2023-04-02T08:34:14.317Z,5.20
2023-04-02T08:37:04.950Z,4.80
2023-04-02T08:39:55.498Z,3.10
2023-04-02T08:42:48.120Z,5.00
2023-04-02T08:45:46.517Z,3.80
2023-04-02T08:48:39.695Z,3.70
2023-04-02T08:51:33.877Z,5.30
2023-04-02T08:54:28.038Z,5.30
2023-04-02T08:57:22.917Z,5.20
2023-04-02T09:00:25.796Z,5.10
2023-04-02T09:03:18.220Z,4.80
2023-04-02T09:06:13.428Z,5.60
2023-04-02T09:09:05.259Z,4.00
2023-04-02T09:12:01.401Z,4.90
2023-04-02T09:14:59.573Z,4.60
2023-04-02T09:17:54.155Z,5.40
2023-04-02T09:20:45.620Z,5.40
2023-04-02T09:23:36.330Z,4.20
2023-04-02T09:26:28.735Z,6.50
2023-04-02T09:29:29.932Z,5.60
2023-04-02T09:32:31.936Z,5.60
2023-04-02T09:35:26.651Z,5.10
2023-04-02T09:38:22.555Z,4.50
2023-04-02T09:41:21.215Z,5.80
2023-04-02T09:44:24.354Z,6.40
2023-04-02T09:47:27.488Z,5.60
2023-04-02T09:50:31.744Z,5.30
2023-04-02T09:53:32.946Z,4.20
2023-04-02T09:56:25.669Z,4.40
2023-04-02T09:59:19.238Z,5.80
2023-04-02T10:02:26.304Z,5.30
2023-04-02T10:05:36.996Z,5.90
2023-04-02T10:08:31.048Z,5.80
2023-04-02T10:11:25.334Z,4.80
2023-04-02T10:14:21.521Z,5.60
2023-04-02T10:17:16.333Z,4.40
2023-04-02T10:20:11.592Z,5.50
2023-04-02T10:25:56.278Z,5.40
2023-04-02T10:28:55.568Z,6.30
2023-04-02T10:31:53.631Z,6.60
2023-04-02T10:34:47.688Z,6.10
2023-04-02T10:37:50.339Z,8.00
2023-04-02T10:40:42.851Z,5.20
2023-04-02T10:44:20.223Z,5.70
2023-04-02T10:47:18.067Z,5.20
2023-04-02T10:50:19.842Z,5.00
2023-04-02T10:53:15.432Z,5.20
2023-04-02T10:56:09.030Z,4.80
2023-04-02T10:59:00.617Z,5.10
2023-04-02T11:01:52.317Z,4.40
2023-04-02T11:04:45.303Z,4.70
2023-04-02T11:07:53.621Z,4.90
2023-04-02T11:10:50.570Z,4.70
2023-04-02T11:13:47.729Z,5.10
2023-04-02T11:16:43.961Z,5.50
2023-04-02T11:19:39.423Z,4.70
2023-04-02T11:22:30.328Z,4.90
2023-04-02T11:25:24.550Z,4.70
2023-04-02T11:28:25.125Z,5.30
2023-04-02T11:31:23.402Z,4.70
2023-04-02T11:34:17.466Z,4.70
2023-04-02T11:37:11.185Z,5.40
2023-04-02T11:40:02.174Z,5.00
2023-04-02T11:42:52.804Z,4.70
2023-04-02T11:45:56.277Z,3.90
2023-04-02T11:48:46.971Z,3.80
2023-04-02T11:51:59.347Z,3.90
2023-04-02T11:55:01.689Z,3.90
2023-04-02T11:58:12.076Z,3.20
2023-04-02T12:01:30.155Z,3.80
2023-04-02T12:04:39.579Z,3.90
2023-04-02T12:07:38.351Z,3.20
2023-04-02T12:10:32.304Z,4.00
2023-04-02T12:13:43.410Z,4.10
2023-04-02T12:16:37.284Z,4.10
2023-04-02T12:19:27.976Z,4.60
2023-04-02T12:22:20.996Z,3.90
2023-04-02T12:25:24.556Z,3.30
2023-04-02T12:28:22.522Z,4.00
2023-04-02T12:31:17.813Z,3.20
2023-04-02T12:34:16.674Z,3.60
2023-04-02T12:37:17.531Z,2.90
2023-04-02T12:40:19.373Z,1.30
2023-04-02T12:43:27.948Z,3.20
2023-04-02T12:46:18.453Z,3.30
2023-04-02T12:49:10.152Z,2.40
2023-04-02T12:52:00.929Z,3.00
2023-04-02T12:54:52.992Z,4.90
2023-04-02T12:57:46.081Z,3.50
2023-04-02T13:00:38.629Z,2.80
2023-04-02T13:03:29.790Z,2.80
2023-04-02T13:06:24.722Z,2.60
2023-04-02T13:09:30.928Z,3.20
2023-04-02T13:12:28.837Z,2.60
2023-04-02T13:15:24.029Z,3.40
2023-04-02T13:18:22.413Z,2.70
2023-04-02T13:21:28.586Z,4.10
2023-04-02T13:24:22.947Z,4.00
2023-04-02T13:27:13.578Z,4.10
2023-04-02T13:30:11.841Z,2.80
2023-04-02T13:33:03.115Z,3.60
2023-04-02T13:35:54.262Z,4.40
2023-04-02T13:38:45.267Z,5.00
2023-04-02T13:41:38.029Z,6.10
2023-04-02T13:44:29.558Z,4.10
2023-04-02T13:47:20.183Z,4.80
2023-04-02T13:50:11.367Z,4.70
2023-04-02T13:53:05.786Z,5.50
2023-04-02T13:55:56.665Z,3.80
2023-04-02T13:58:47.622Z,5.10
2023-04-02T14:01:38.505Z,5.30
2023-04-02T14:04:30.835Z,4.50
2023-04-02T14:07:36.979Z,4.30
2023-04-02T14:10:35.551Z,4.50
2023-04-02T14:13:34.067Z,6.30
2023-04-02T14:16:32.714Z,3.60
2023-04-02T14:19:34.600Z,4.20
2023-04-02T14:22:30.999Z,3.80
2023-04-02T14:25:24.439Z,4.00
2023-04-02T14:28:20.720Z,4.40
2023-04-02T14:31:15.718Z,3.70
2023-04-02T14:34:09.828Z,3.70
2023-04-02T14:37:03.559Z,2.80
2023-04-02T14:39:59.344Z,3.50
2023-04-02T14:42:54.316Z,3.30
2023-04-02T14:45:53.417Z,4.60
2023-04-02T14:48:47.995Z,5.00
2023-04-02T14:51:46.361Z,4.60
2023-04-02T14:54:38.730Z,6.00
2023-04-02T14:57:30.699Z,4.10
2023-04-02T15:00:30.664Z,4.60
2023-04-02T15:03:24.284Z,4.20
2023-04-02T15:06:18.140Z,2.60
2023-04-02T15:09:11.759Z,4.20
2023-04-02T15:12:07.731Z,4.70
2023-04-02T15:15:02.655Z,4.80
2023-04-02T15:17:53.235Z,5.50
2023-04-02T15:20:47.326Z,5.20
2023-04-02T15:23:50.619Z,5.60
2023-04-02T15:26:47.309Z,3.30
2023-04-02T15:29:45.539Z,4.60
2023-04-02T15:32:40.244Z,4.90
2023-04-02T15:35:36.818Z,5.60
2023-04-02T15:38:29.174Z,4.70
2023-04-02T15:41:25.344Z,4.30
2023-04-02T15:44:17.092Z,4.60
2023-04-02T15:47:11.291Z,4.00
2023-04-02T15:50:07.074Z,4.20
2023-04-02T15:53:02.412Z,4.10
2023-04-02T15:55:58.864Z,3.60
2023-04-02T15:59:12.551Z,2.90
2023-04-02T16:02:08.258Z,2.70
2023-04-02T16:05:00.287Z,4.70
2023-04-02T16:08:21.246Z,4.20
2023-04-02T16:11:14.132Z,4.60
2023-04-02T16:14:21.268Z,3.80
2023-04-02T16:17:24.297Z,4.90
2023-04-02T16:20:22.659Z,5.30
2023-04-02T16:23:16.439Z,5.20
2023-04-02T16:26:13.110Z,6.00
2023-04-02T16:29:13.190Z,7.30
2023-04-02T16:32:06.526Z,6.40
2023-04-02T16:35:14.191Z,6.30
2023-04-02T16:38:14.636Z,7.10
2023-04-02T16:41:09.383Z,6.50
2023-04-02T16:44:04.035Z,7.20
2023-04-02T16:47:02.571Z,6.80
2023-04-02T16:49:55.326Z,7.60
2023-04-02T16:52:49.490Z,8.10
2023-04-02T16:55:46.828Z,8.10
2023-04-02T16:58:44.603Z,7.30
2023-04-02T17:01:40.552Z,8.70
2023-04-02T17:04:46.540Z,10.80
2023-04-02T17:07:40.788Z,9.80
2023-04-02T17:10:33.425Z,11.00
2023-04-02T17:13:29.742Z,12.60
2023-04-02T17:16:22.475Z,10.60
2023-04-02T17:19:14.612Z,14.70
2023-04-02T17:22:06.376Z,14.10
2023-04-02T17:24:58.133Z,15.10
2023-04-02T17:27:49.458Z,14.50
2023-04-02T17:30:41.613Z,15.80
2023-04-02T17:33:32.585Z,14.10
2023-04-02T17:36:32.878Z,15.90
2023-04-02T17:39:28.605Z,11.50
2023-04-02T17:42:22.124Z,12.50
2023-04-02T17:45:15.604Z,17.50
2023-04-02T17:48:09.681Z,14.10
2023-04-02T17:51:09.880Z,12.40
2023-04-02T17:54:06.808Z,12.10
2023-04-02T17:57:08.508Z,14.00
2023-04-02T18:00:28.964Z,12.90
2023-04-02T18:03:40.439Z,12.70
2023-04-02T18:06:38.012Z,11.30
2023-04-02T18:09:34.631Z,9.40
2023-04-02T18:12:33.398Z,9.50
2023-04-02T18:15:53.993Z,10.60
2023-04-02T18:19:08.400Z,9.90
2023-04-02T18:22:00.425Z,9.30
2023-04-02T18:25:03.950Z,9.30
2023-04-02T18:28:04.185Z,8.70
2023-04-02T18:30:57.277Z,10.30
2023-04-02T18:34:01.690Z,10.30
2023-04-02T18:36:59.982Z,7.10
2023-04-02T18:39:59.148Z,7.30
2023-04-02T18:42:54.516Z,10.00
2023-04-02T18:45:52.979Z,10.80
2023-04-02T18:48:49.038Z,6.50
2023-04-02T18:51:39.880Z,6.10
2023-04-02T18:54:33.326Z,7.50
2023-04-02T18:57:28.125Z,9.20
2023-04-02T19:00:27.432Z,8.20
2023-04-02T19:03:21.092Z,7.60
2023-04-02T19:06:12.928Z,8.40
2023-04-02T19:09:06.799Z,6.80
2023-04-02T19:11:57.114Z,8.40
2023-04-02T19:14:51.042Z,7.20
2023-04-02T19:17:45.829Z,9.30
2023-04-02T19:20:39.383Z,7.00
2023-04-02T19:23:44.580Z,7.60
2023-04-02T19:26:39.491Z,10.60
2023-04-02T19:29:37.003Z,9.50
2023-04-02T19:32:32.057Z,9.10
2023-04-02T19:35:28.010Z,9.70
2023-04-02T19:38:24.653Z,7.20
2023-04-02T19:41:21.272Z,11.80
2023-04-02T19:44:13.697Z,13.10
2023-04-02T19:47:09.110Z,9.30
2023-04-02T19:50:00.699Z,9.10
2023-04-02T19:52:52.020Z,6.00
2023-04-02T19:55:43.417Z,7.50
2023-04-02T19:58:35.868Z,9.80
2023-04-02T20:01:26.691Z,7.00
2023-04-02T20:04:17.494Z,8.90
2023-04-02T20:07:09.022Z,9.60
2023-04-02T20:10:00.142Z,8.40
2023-04-02T20:12:51.681Z,7.20
2023-04-02T20:15:42.896Z,9.80
2023-04-02T20:18:33.763Z,8.60
2023-04-02T20:21:24.845Z,9.80
2023-04-02T20:24:15.850Z,10.60
2023-04-02T20:27:06.662Z,10.60
2023-04-02T20:29:57.265Z,11.70
2023-04-02T20:32:47.701Z,8.90
2023-04-02T20:35:42.606Z,18.80
2023-04-02T20:38:35.018Z,14.20
2023-04-02T20:41:26.408Z,12.50
2023-04-02T20:44:17.034Z,13.70
2023-04-02T20:47:08.435Z,11.00
2023-04-02T20:50:00.186Z,11.10
2023-04-02T20:52:51.660Z,11.70
2023-04-02T20:55:41.991Z,11.10
2023-04-02T20:58:34.113Z,8.00
2023-04-02T21:01:26.440Z,11.60
2023-04-02T21:04:18.063Z,7.40
2023-04-02T21:07:08.829Z,8.30
2023-04-02T21:09:59.676Z,7.40
2023-04-02T21:12:50.593Z,8.80
2023-04-02T21:15:44.274Z,8.80
2023-04-02T21:18:35.098Z,10.50
2023-04-02T21:21:25.694Z,7.90
2023-04-02T21:24:16.245Z,7.80
2023-04-02T21:27:06.626Z,8.30
2023-04-02T21:29:57.101Z,9.20
2023-04-02T21:32:47.809Z,7.80
2023-04-02T21:35:38.403Z,6.80
2023-04-02T21:38:28.911Z,9.80
2023-04-02T21:41:21.413Z,6.60
2023-04-02T21:44:13.951Z,6.00
2023-04-02T21:47:04.726Z,11.10
2023-04-02T21:49:55.173Z,6.00
2023-04-02T21:52:46.103Z,8.00
2023-04-02T21:55:36.996Z,4.00
2023-04-02T21:58:27.587Z,10.60
2023-04-02T22:01:27.429Z,5.10
2023-04-02T22:04:19.968Z,4.60
2023-04-02T22:07:10.643Z,6.90
2023-04-02T22:10:01.429Z,7.10
2023-04-02T22:12:52.791Z,6.40
2023-04-02T22:15:43.248Z,4.60
2023-04-02T22:18:33.988Z,3.00
2023-04-02T22:21:25.470Z,5.80
2023-04-02T22:24:18.766Z,3.00
2023-04-02T22:27:09.260Z,3.40
2023-04-02T22:29:59.696Z,6.70
2023-04-02T22:32:50.212Z,6.40
2023-04-02T22:35:40.946Z,6.20
2023-04-02T22:38:31.829Z,5.00
2023-04-02T22:41:23.828Z,3.50
2023-04-02T22:44:16.899Z,8.40
2023-04-02T22:47:07.585Z,6.70
2023-04-02T22:49:58.051Z,3.60
2023-04-02T22:52:48.640Z,8.00
2023-04-02T22:55:39.037Z,3.80
2023-04-02T22:58:29.839Z,8.50
2023-04-02T23:01:22.576Z,3.50
2023-04-02T23:04:13.539Z,4.30
2023-04-02T23:07:03.959Z,7.40
2023-04-02T23:09:54.461Z,9.40
2023-04-02T23:12:44.828Z,5.40
2023-04-02T23:15:35.385Z,4.20
2023-04-02T23:18:25.778Z,3.40
2023-04-02T23:21:16.783Z,2.50
2023-04-02T23:24:07.782Z,5.20
2023-04-02T23:26:58.509Z,3.50
2023-04-02T23:29:49.282Z,4.60
2023-04-02T23:32:40.150Z,3.00
2023-04-02T23:35:31.133Z,3.00
2023-04-02T23:38:21.979Z,4.70
2023-04-02T23:41:16.086Z,5.70
2023-04-02T23:44:07.082Z,3.60
2023-04-02T23:46:57.502Z,2.70
2023-04-02T23:49:48.064Z,4.80
2023-04-02T23:52:38.503Z,2.50
2023-04-02T23:55:29.135Z,3.10
2023-04-02T23:58:19.567Z,2.20
